sensor_id;sensor_type;location;lat;lon;timestamp;pressure;altitude;pressure_sealevel;temperature;humidity
74431;BME280;62863;52.062;23.764;2023-06-22T00:02:17;1025.9;;;22.3;63.7
74431;BME280;62863;52.062;23.764;2023-06-22T00:07:28;1025.9;;;22.3;63.5
74431;BME280;62863;52.062;23.764;2023-06-22T00:11:54;1025.9;;;22.3;63.6
74431;BME280;62863;52.062;23.764;2023-06-22T00:17:23;1025.9;;;22.3;63.3
74431;BME280;62863;52.062;23.764;2023-06-22T00:22:00;1025.9;;;22.3;63.7
74431;BME280;62863;52.062;23.764;2023-06-22T00:26:52;1025.9;;;22.4;64.4
74431;BME280;62863;52.062;23.764;2023-06-22T00:31:52;1025.9;;;22.3;64.8
74431;BME280;62863;52.062;23.764;2023-06-22T00:37:26;1025.8;;;22.2;65.3
74431;BME280;62863;52.062;23.764;2023-06-22T00:42:08;1025.8;;;22.2;65.7
74431;BME280;62863;52.062;23.764;2023-06-22T00:47:22;1025.7;;;22.1;65.3
74431;BME280;62863;52.062;23.764;2023-06-22T00:52:36;1025.6;;;22.2;65.1
74431;BME280;62863;52.062;23.764;2023-06-22T00:57:28;1025.6;;;22.1;65.3
74431;BME280;62863;52.062;23.764;2023-06-22T01:01:52;1025.5;;;22;65.9
74431;BME280;62863;52.062;23.764;2023-06-22T01:07:27;1025.5;;;21.9;66.1
74431;BME280;62863;52.062;23.764;2023-06-22T01:12:38;1025.5;;;21.9;66.2
74431;BME280;62863;52.062;23.764;2023-06-22T01:17:34;1025.5;;;21.8;66.1
74431;BME280;62863;52.062;23.764;2023-06-22T01:22:43;1025.5;;;21.8;66.5
74431;BME280;62863;52.062;23.764;2023-06-22T01:27:44;1025.5;;;21.7;67.5
74431;BME280;62863;52.062;23.764;2023-06-22T01:32:02;1025.4;;;21.6;67.5
74431;BME280;62863;52.062;23.764;2023-06-22T01:37:02;1025.4;;;21.6;67.7
74431;BME280;62863;52.062;23.764;2023-06-22T01:42:04;1025.4;;;21.6;67.6
74431;BME280;62863;52.062;23.764;2023-06-22T01:47:40;1025.3;;;21.6;67.8
74431;BME280;62863;52.062;23.764;2023-06-22T01:52:28;1025.3;;;21.5;67.4
74431;BME280;62863;52.062;23.764;2023-06-22T01:57:30;1025.3;;;21.6;67.3
74431;BME280;62863;52.062;23.764;2023-06-22T02:02:04;1025.3;;;21.6;67.1
74431;BME280;62863;52.062;23.764;2023-06-22T02:06:54;1025.4;;;21.7;67.4
74431;BME280;62863;52.062;23.764;2023-06-22T02:11:52;1025.4;;;21.8;67.6
74431;BME280;62863;52.062;23.764;2023-06-22T02:17:07;1025.4;;;21.8;66.6
74431;BME280;62863;52.062;23.764;2023-06-22T02:22:40;1025.4;;;21.8;67.2
74431;BME280;62863;52.062;23.764;2023-06-22T02:27:04;1025.4;;;21.9;67
74431;BME280;62863;52.062;23.764;2023-06-22T02:32:28;1025.5;;;21.9;66.9
74431;BME280;62863;52.062;23.764;2023-06-22T02:37:02;1025.5;;;22;66.6
74431;BME280;62863;52.062;23.764;2023-06-22T02:41:52;1025.5;;;22;66.7
74431;BME280;62863;52.062;23.764;2023-06-22T02:47:38;1025.4;;;21.9;67.3
74431;BME280;62863;52.062;23.764;2023-06-22T02:52:06;1025.5;;;22;67.3
74431;BME280;62863;52.062;23.764;2023-06-22T02:57:24;1025.5;;;22;67.2
74431;BME280;62863;52.062;23.764;2023-06-22T03:02:14;1025.5;;;22;67.3
74431;BME280;62863;52.062;23.764;2023-06-22T03:07:40;1025.5;;;22.1;66.8
74431;BME280;62863;52.062;23.764;2023-06-22T03:11:52;1025.5;;;22.1;66.8
74431;BME280;62863;52.062;23.764;2023-06-22T03:16:52;1025.4;;;22.3;66.2
74431;BME280;62863;52.062;23.764;2023-06-22T03:22:40;1025.4;;;22.4;65.1
74431;BME280;62863;52.062;23.764;2023-06-22T03:27:18;1025.3;;;22.5;64.5
74431;BME280;62863;52.062;23.764;2023-06-22T03:32:12;1025.4;;;22.6;63.9
74431;BME280;62863;52.062;23.764;2023-06-22T03:37:14;1025.4;;;22.6;64.1
74431;BME280;62863;52.062;23.764;2023-06-22T03:42:40;1025.4;;;22.6;65.4
74431;BME280;62863;52.062;23.764;2023-06-22T03:46:52;1025.5;;;22.6;65.4
74431;BME280;62863;52.062;23.764;2023-06-22T03:52:02;1025.6;;;22.6;65.8
74431;BME280;62863;52.062;23.764;2023-06-22T03:57:38;1025.6;;;22.6;65.5
74431;BME280;62863;52.062;23.764;2023-06-22T04:02:14;1025.6;;;22.5;66.3
74431;BME280;62863;52.062;23.764;2023-06-22T04:07:02;1025.6;;;22.6;66.6
74431;BME280;62863;52.062;23.764;2023-06-22T04:12:14;1025.6;;;22.6;65.9
74431;BME280;62863;52.062;23.764;2023-06-22T04:17:22;1025.6;;;22.6;65.4
74431;BME280;62863;52.062;23.764;2023-06-22T04:22:06;1025.6;;;22.7;65.3
74431;BME280;62863;52.062;23.764;2023-06-22T04:37:22;1025.6;;;22.7;64.3
74431;BME280;62863;52.062;23.764;2023-06-22T04:42:02;1025.6;;;22.7;64.2
74431;BME280;62863;52.062;23.764;2023-06-22T04:47:14;1025.6;;;22.7;64.5
74431;BME280;62863;52.062;23.764;2023-06-22T04:52:04;1025.7;;;22.9;64.6
74431;BME280;62863;52.062;23.764;2023-06-22T04:57:02;1025.7;;;23.1;64.8
74431;BME280;62863;52.062;23.764;2023-06-22T05:02:18;1025.6;;;23.3;64.3
74431;BME280;62863;52.062;23.764;2023-06-22T05:07:14;1025.6;;;23.5;63.6
74431;BME280;62863;52.062;23.764;2023-06-22T06:42:28;1025.7;;;24.6;61.6
74431;BME280;62863;52.062;23.764;2023-06-22T06:47:38;1025;;;41.5;31.2
74431;BME280;62863;52.062;23.764;2023-06-22T07:57:10;1024.6;;;40.2;31.4
74431;BME280;62863;52.062;23.764;2023-06-22T08:12:02;1024.6;;;40.2;31.4
74431;BME280;62863;52.062;23.764;2023-06-22T08:16:52;1024.6;;;42.2;27
74431;BME280;62863;52.062;23.764;2023-06-22T08:42:06;1024.7;;;37.6;32.4
74431;BME280;62863;52.062;23.764;2023-06-22T08:47:02;1024.7;;;37.3;32.6
74431;BME280;62863;52.062;23.764;2023-06-22T09:12:14;1024.7;;;37.3;32.6
74431;BME280;62863;52.062;23.764;2023-06-22T09:17:22;1024.7;;;37.5;33.5
74431;BME280;62863;52.062;23.764;2023-06-22T09:57:00;1024.7;;;37.2;33.6
74431;BME280;62863;52.062;23.764;2023-06-22T10:07:10;1024.3;;;35.8;34.2
74431;BME280;62863;52.062;23.764;2023-06-22T10:32:42;1024;;;35.3;34.8
74431;BME280;62863;52.062;23.764;2023-06-22T11:17:26;1023.9;;;35.2;35.1
74431;BME280;62863;52.062;23.764;2023-06-22T12:41:52;1023.9;;;35.2;35.1
74431;BME280;62863;52.062;23.764;2023-06-22T12:47:40;1025.1;;;28;59.3
74431;BME280;62863;52.062;23.764;2023-06-22T12:52:24;1025;;;28.6;59.1
74431;BME280;62863;52.062;23.764;2023-06-22T12:56:52;1024.8;;;29.6;54.7
74431;BME280;62863;52.062;23.764;2023-06-22T13:07:16;1024.8;;;30;53.7
74431;BME280;62863;52.062;23.764;2023-06-22T13:11:52;1024.6;;;31.2;49.9
74431;BME280;62863;52.062;23.764;2023-06-22T13:17:16;1024.6;;;31.5;49.4
74431;BME280;62863;52.062;23.764;2023-06-22T13:22:40;1024.6;;;31.7;50.4
74431;BME280;62863;52.062;23.764;2023-06-22T13:27:38;1024.5;;;31.9;48.3
74431;BME280;62863;52.062;23.764;2023-06-22T13:32:10;1024.5;;;31.8;47.2
74431;BME280;62863;52.062;23.764;2023-06-22T13:37:04;1024.6;;;31.8;47.8
74431;BME280;62863;52.062;23.764;2023-06-22T13:41:52;1024.7;;;32;48.1
74431;BME280;62863;52.062;23.764;2023-06-22T13:52:14;1025;;;30.5;49.6
74431;BME280;62863;52.062;23.764;2023-06-22T14:02:25;1025.3;;;27.5;57.8
74431;BME280;62863;52.062;23.764;2023-06-22T14:37:24;1024.9;;;26.8;63.1
74431;BME280;62863;52.062;23.764;2023-06-22T14:42:40;1024.7;;;27.4;60.7
74431;BME280;62863;52.062;23.764;2023-06-22T14:47:28;1024.6;;;28.1;59.5
74431;BME280;62863;52.062;23.764;2023-06-22T14:52:05;1024.6;;;28.8;59.7
74431;BME280;62863;52.062;23.764;2023-06-22T14:57:30;1024.5;;;29.2;58.4
74431;BME280;62863;52.062;23.764;2023-06-22T15:02:38;1024.4;;;29.6;56.3
74431;BME280;62863;52.062;23.764;2023-06-22T15:07:40;1024.3;;;29.7;54.8
74431;BME280;62863;52.062;23.764;2023-06-22T15:12:40;1024.3;;;29.9;54.6
74431;BME280;62863;52.062;23.764;2023-06-22T15:17:40;1024.3;;;29.9;54.5
74431;BME280;62863;52.062;23.764;2023-06-22T15:22:08;1024.3;;;29.9;54.3
74431;BME280;62863;52.062;23.764;2023-06-22T15:26:52;1024.4;;;29.6;55.6
74431;BME280;62863;52.062;23.764;2023-06-22T15:37:38;1024.4;;;29.4;55.9
74431;BME280;62863;52.062;23.764;2023-06-22T15:56:52;1024.4;;;29.6;55.4
74431;BME280;62863;52.062;23.764;2023-06-22T16:02:00;1024.5;;;29.6;55.6
74431;BME280;62863;52.062;23.764;2023-06-22T16:07:16;1024.5;;;29.6;56.4
74431;BME280;62863;52.062;23.764;2023-06-22T16:12:41;1024.5;;;29.6;56.9
74431;BME280;62863;52.062;23.764;2023-06-22T16:17:26;1024.5;;;29.4;55.1
74431;BME280;62863;52.062;23.764;2023-06-22T16:22:38;1024.5;;;29.2;55
74431;BME280;62863;52.062;23.764;2023-06-22T16:26:52;1024.4;;;29.2;55.2
74431;BME280;62863;52.062;23.764;2023-06-22T16:32:05;1024.4;;;29.2;55.1
74431;BME280;62863;52.062;23.764;2023-06-22T16:37:24;1024.3;;;29.1;56.2
74431;BME280;62863;52.062;23.764;2023-06-22T16:42:16;1024.3;;;28.9;56.9
74431;BME280;62863;52.062;23.764;2023-06-22T16:47:10;1024.3;;;28.7;57
74431;BME280;62863;52.062;23.764;2023-06-22T16:52:14;1024.3;;;28.6;56.9
74431;BME280;62863;52.062;23.764;2023-06-22T16:57:41;1024.4;;;28.5;57.6
74431;BME280;62863;52.062;23.764;2023-06-22T17:02:15;1024.4;;;28.1;56.9
74431;BME280;62863;52.062;23.764;2023-06-22T17:07:07;1024.4;;;28.1;58.4
74431;BME280;62863;52.062;23.764;2023-06-22T17:12:26;1024.4;;;27.9;58.8
74431;BME280;62863;52.062;23.764;2023-06-22T17:17:03;1024.4;;;27.7;59.9
74431;BME280;62863;52.062;23.764;2023-06-22T17:22:08;1024.4;;;27.4;61.8
74431;BME280;62863;52.062;23.764;2023-06-22T17:27:03;1024.4;;;27.3;61.9
74431;BME280;62863;52.062;23.764;2023-06-22T17:32:24;1024.4;;;27;62.6
74431;BME280;62863;52.062;23.764;2023-06-22T17:37:06;1024.3;;;26.9;62.7
74431;BME280;62863;52.062;23.764;2023-06-22T17:41:53;1024.3;;;26.8;63.5
74431;BME280;62863;52.062;23.764;2023-06-22T17:47:37;1024.3;;;26.6;65.1
74431;BME280;62863;52.062;23.764;2023-06-22T17:52:26;1024.4;;;26.5;64.6
74431;BME280;62863;52.062;23.764;2023-06-22T17:57:14;1024.3;;;26.3;67.1
74431;BME280;62863;52.062;23.764;2023-06-22T18:02:28;1024.3;;;26.1;67.9
74431;BME280;62863;52.062;23.764;2023-06-22T18:07:12;1024.4;;;26;68.4
74431;BME280;62863;52.062;23.764;2023-06-22T18:11:52;1024.4;;;25.9;69.1
74431;BME280;62863;52.062;23.764;2023-06-22T18:16:52;1024.3;;;25.8;69.7
74431;BME280;62863;52.062;23.764;2023-06-22T18:22:28;1024.3;;;25.6;71.1
74431;BME280;62863;52.062;23.764;2023-06-22T18:27:23;1024.4;;;25.5;71.5
74431;BME280;62863;52.062;23.764;2023-06-22T18:32:23;1024.4;;;25.4;72
74431;BME280;62863;52.062;23.764;2023-06-22T18:37:13;1024.4;;;25.3;72.5
74431;BME280;62863;52.062;23.764;2023-06-22T18:42:14;1024.5;;;25.2;72.9
74431;BME280;62863;52.062;23.764;2023-06-22T18:47:01;1024.5;;;25.1;73
74431;BME280;62863;52.062;23.764;2023-06-22T18:52:15;1024.6;;;25;72.9
74431;BME280;62863;52.062;23.764;2023-06-22T18:57:01;1024.7;;;24.9;73.2
74431;BME280;62863;52.062;23.764;2023-06-22T19:02:57;1024.7;;;24.9;73.5
74431;BME280;62863;52.062;23.764;2023-06-22T19:07:55;1024.8;;;24.8;73.9
74431;BME280;62863;52.062;23.764;2023-06-22T19:12:27;1024.8;;;24.7;74.4
74431;BME280;62863;52.062;23.764;2023-06-22T19:17:05;1024.9;;;24.7;75.5
74431;BME280;62863;52.062;23.764;2023-06-22T19:22:42;1024.9;;;24.6;75.9
74431;BME280;62863;52.062;23.764;2023-06-22T19:27:35;1024.9;;;24.5;76.2
74431;BME280;62863;52.062;23.764;2023-06-22T19:32:35;1024.9;;;24.4;76.3
74431;BME280;62863;52.062;23.764;2023-06-22T19:37:35;1024.9;;;24.3;75.7
74431;BME280;62863;52.062;23.764;2023-06-22T19:42:35;1024.9;;;24.1;75.6
74431;BME280;62863;52.062;23.764;2023-06-22T19:47:01;1024.9;;;24;76.4
74431;BME280;62863;52.062;23.764;2023-06-22T19:52:05;1024.9;;;24;76.4
74431;BME280;62863;52.062;23.764;2023-06-22T19:57:27;1024.9;;;23.9;76.3
74431;BME280;62863;52.062;23.764;2023-06-22T20:02:35;1024.9;;;23.8;76.1
74431;BME280;62863;52.062;23.764;2023-06-22T20:07:11;1024.9;;;23.7;75.6
74431;BME280;62863;52.062;23.764;2023-06-22T20:12:27;1025;;;23.7;75.9
74431;BME280;62863;52.062;23.764;2023-06-22T20:17:39;1025;;;23.6;76
74431;BME280;62863;52.062;23.764;2023-06-22T20:22:15;1025;;;23.6;77.1
74431;BME280;62863;52.062;23.764;2023-06-22T20:27:01;1025;;;23.5;77.8
74431;BME280;62863;52.062;23.764;2023-06-22T20:32:13;1025;;;23.5;78.2
74431;BME280;62863;52.062;23.764;2023-06-22T20:36:55;1024.9;;;23.4;77.8
74431;BME280;62863;52.062;23.764;2023-06-22T20:42:23;1024.9;;;23.3;77.9
74431;BME280;62863;52.062;23.764;2023-06-22T20:47:35;1024.9;;;23.2;78.2
74431;BME280;62863;52.062;23.764;2023-06-22T20:52:37;1024.8;;;23.1;78.1
74431;BME280;62863;52.062;23.764;2023-06-22T20:57:01;1024.8;;;22.9;77.5
74431;BME280;62863;52.062;23.764;2023-06-22T21:02:23;1024.7;;;22.8;78.4
74431;BME280;62863;52.062;23.764;2023-06-22T21:06:53;1024.7;;;22.7;78.6
74431;BME280;62863;52.062;23.764;2023-06-22T21:11:53;1024.7;;;22.6;78.4
74431;BME280;62863;52.062;23.764;2023-06-22T21:17:01;1024.7;;;22.4;78.4
74431;BME280;62863;52.062;23.764;2023-06-22T21:22:37;1024.7;;;22.3;78.7
74431;BME280;62863;52.062;23.764;2023-06-22T21:26:53;1024.7;;;22.2;78.5
74431;BME280;62863;52.062;23.764;2023-06-22T21:31:53;1024.7;;;22;78.7
74431;BME280;62863;52.062;23.764;2023-06-22T21:37:37;1024.7;;;21.9;77.7
74431;BME280;62863;52.062;23.764;2023-06-22T21:42:21;1024.6;;;21.8;77.8
74431;BME280;62863;52.062;23.764;2023-06-22T21:46:53;1024.6;;;21.7;77.9
74431;BME280;62863;52.062;23.764;2023-06-22T21:51:53;1024.7;;;21.6;78.6
74431;BME280;62863;52.062;23.764;2023-06-22T21:57:23;1024.7;;;21.5;78.6
74431;BME280;62863;52.062;23.764;2023-06-22T22:02:11;1024.7;;;21.4;78.4
74431;BME280;62863;52.062;23.764;2023-06-22T22:07:01;1024.7;;;21.3;78.7
74431;BME280;62863;52.062;23.764;2023-06-22T22:12:37;1024.7;;;21.2;78.1
74431;BME280;62863;52.062;23.764;2023-06-22T22:17:23;1024.7;;;21.2;78.3
74431;BME280;62863;52.062;23.764;2023-06-22T22:42:01;1024.8;;;20.5;78.6
74431;BME280;62863;52.062;23.764;2023-06-22T22:47:27;1024.8;;;20.5;78.8
74431;BME280;62863;52.062;23.764;2023-06-22T22:52:15;1024.8;;;20.5;78.9
74431;BME280;62863;52.062;23.764;2023-06-22T22:57:23;1024.8;;;20.4;79.1
74431;BME280;62863;52.062;23.764;2023-06-22T23:02:13;1024.9;;;20.4;79
74431;BME280;62863;52.062;23.764;2023-06-22T23:06:53;1025;;;20.3;79.7
74431;BME280;62863;52.062;23.764;2023-06-22T23:22:09;1025;;;20;78.2
74431;BME280;62863;52.062;23.764;2023-06-22T23:47:27;1025;;;20;79.6
